• Join FlightAware (Why Join?)
  • Login
  • US Flag 
01:19PM EDT


 

Airport Tracker/Info


-or-


 

Live Flight TrackerFlight Track Log ✈ N830QS ✈ 01-Jul-2013 ✈ KSTS - KSUS

Flight Track Log - Related Links

Times and Time Zones

All times are in EDT time to prevent confusion due to time zone crossing. See the N830QS flight status page for this flight to view local times or setup timezone preferences in your user account.

Time Position Orientation Groundspeed Altitude Reporting Facility
EDT Latitude Longitude Course Direction KTS MPH feet Rate Location/Type
12:09PM 38.4650 -122.7111 82° East 264 304 4,000  Level Oakland Center
12:10PM 38.4694 -122.6161 87° East 270 311 6,200 2,100 Climbing Oakland Center
12:11PM 38.4653 -122.5144 93° East 281 323 8,400 2,220 Climbing Oakland Center
12:12PM 38.6038 -122.0010 81° East  Level Estimated
12:12PM 38.4636 -122.4067 91° East 298 343 10,800  Level Oakland Center
12:13PM 38.6190 -121.8654 82° East  Level Estimated
12:13PM 38.4617 -122.2967 91° East 307 353 13,200  Level Oakland Center
12:14PM 38.6341 -121.7298 82° East  Level Estimated
12:14PM 38.4589 -122.1867 92° East 310 357 15,500  Level Oakland Center
12:15PM 38.6491 -121.5942 82° East  Level Estimated
12:15PM 38.4567 -122.0719 91° East 321 369 17,600  Level Oakland Center
12:16PM 38.4536 -121.9333 92° East 326 375 20,200 2,160 Climbing Oakland Center
12:17PM 38.4503 -121.8158 92° East 332 382 22,000 1,320 Climbing Oakland Center
12:18PM 38.4347 -121.6975 99° East 340 391 23,000 480 Climbing Oakland Center
12:19PM 38.4089 -121.5842 106° East 335 386 23,000 180 Level Oakland Center
12:20PM 38.3828 -121.4744 107° East 329 379 23,400 780 Climbing Oakland Center
12:21PM 38.3647 -121.3553 101° East 362 417 24,600 1,140 Climbing Oakland Center
12:22PM 38.3733 -121.2261 85° East 374 430 25,800 1,380 Climbing Oakland Center
12:24PM 38.3844 -121.0681 85° East 379 436 27,500 1,620 Climbing Oakland Center
12:25PM 38.3936 -120.9364 85° East 378 435 29,200 1,560 Climbing Oakland Center
12:26PM 38.4039 -120.8078 84° East 371 427 30,800 1,380 Climbing Oakland Center
12:27PM 38.4119 -120.6806 85° East 365 420 32,100 1,260 Climbing Oakland Center
12:28PM 38.4206 -120.5489 85° East 370 426 33,500 1,500 Climbing Oakland Center
12:29PM 38.4297 -120.4200 85° East 368 423 35,200 1,500 Climbing Oakland Center
12:30PM 38.4381 -120.2950 85° East 358 412 36,600 1,080 Climbing Oakland Center
12:31PM 38.4453 -120.1703 86° East 354 407 37,500 1,140 Climbing Oakland Center
12:32PM 38.4561 -120.0153 85° East 364 419 39,000 1,260 Climbing Oakland Center
12:33PM 38.4633 -119.8900 86° East 355 409 40,100 960 Climbing Oakland Center
12:34PM 38.4719 -119.7658 85° East 350 403 41,000 420 Climbing Oakland Center
12:35PM 38.4789 -119.6369 86° East 358 412 41,000  Level Oakland Center
12:37PM 38.4931 -119.4014 86° East 371 427 41,000  Level Salt Lake Center
12:38PM 38.5008 -119.2725 86° East 367 422 41,000  Level Salt Lake Center
12:39PM 38.5075 -119.1464 86° East 359 413 41,000  Level Salt Lake Center
12:40PM 38.5156 -118.9944 86° East 359 413 41,000  Level Salt Lake Center
12:41PM 38.5247 -118.8431 86° East 357 411 41,000  Level Oakland Center
12:42PM 38.5311 -118.7161 86° East 359 413 41,000  Level Oakland Center
12:43PM 38.5372 -118.5903 86° East 357 411 41,000  Level Oakland Center
12:45PM 38.5506 -118.3419 86° East 359 413 41,000  Level Salt Lake Center
12:46PM 38.5564 -118.2094 87° East 361 415 41,000  Level Oakland Center
12:47PM 38.5633 -118.0583 87° East 364 419 41,000  Level Oakland Center
12:48PM 38.5744 -117.9319 84° East 358 412 41,000  Level Oakland Center
12:49PM 38.5864 -117.8017 83° East 365 420 41,000  Level Oakland Center
12:51PM 38.6100 -117.5453 83° East 361 415 41,000  Level Oakland Center
12:52PM 38.6214 -117.4167 83° East 362 417 41,000  Level Oakland Center
12:53PM 38.6333 -117.2864 83° East 365 420 41,000  Level Salt Lake Center
12:54PM 38.6439 -117.1578 84° East 362 417 41,000  Level Salt Lake Center
12:55PM 38.6533 -117.0325 84° East 355 409 41,000  Level Oakland Center
12:56PM 38.6647 -116.9064 83° East 355 409 41,000  Level Oakland Center
12:57PM 38.6750 -116.7803 84° East 354 407 41,000  Level Oakland Center
12:58PM 38.6858 -116.6514 84° East 361 415 41,000  Level Salt Lake Center
12:59PM 38.6981 -116.5006 84° East 356 410 41,000  Level Salt Lake Center
01:00PM 38.7075 -116.3747 84° East 356 410 41,000  Level Salt Lake Center
01:01PM 38.7175 -116.2478 84° East 357 411 41,000  Level Salt Lake Center
01:02PM 38.7272 -116.1225 84° East 355 409 41,000  Level Salt Lake Center
01:03PM 38.7361 -115.9967 85° East 353 406 41,000  Level Salt Lake Center
01:05PM 38.7464 -115.8708 84° East 355 409 41,000  Level Salt Lake Center
01:06PM 38.7553 -115.7447 85° East 357 411 41,000  Level Salt Lake Center
01:07PM 38.7658 -115.5942 85° East 354 407 41,000  Level Salt Lake Center
01:08PM 38.7756 -115.4681 84° East 355 409 41,000  Level Salt Lake Center
01:09PM 38.7844 -115.3494 84° East 356 410 41,000  Level Salt Lake Center
01:10PM 38.7911 -115.2244 86° East 353 406 41,000  Level Salt Lake Center
01:12PM 38.8131 -114.9444 84° East 361 415 41,000  Level Salt Lake Center
01:13PM 38.8211 -114.8192 85° East 355 409 41,000  Level Salt Lake Center
01:14PM 38.8297 -114.6917 85° East 358 412 41,000  Level Salt Lake Center
01:16PM 38.8429 -114.4711 86° East  Level FlightAware Approximate
01:18PM 38.8633 -114.1547 86° East 360 414 41,000  Level Salt Lake Center
01:19PM 38.8703 -114.0264 86° East 361 415 41,000  Level Salt Lake Center
01:21PM 38.8847 -113.7683 86° East 363 418 41,000  Level Salt Lake Center
01:22PM 38.8925 -113.6403 85° East 360 414 41,000  Level Salt Lake Center
01:23PM 38.8932 -113.5528 86° East  Level FlightAware Approximate
01:23PM 38.9011 -113.4872 86° East 359 413 41,000  Level Salt Lake Center
01:24PM 38.9081 -113.3592 86° East 360 414 41,000  Level Salt Lake Center
01:25PM 38.9147 -113.2333 86° East 355 409 41,000  Level Salt Lake Center
01:26PM 38.9208 -113.1069 86° East 354 407 41,000  Level Salt Lake Center
01:27PM 38.9275 -112.9778 86° East 360 414 41,000  Level Salt Lake Center
01:28PM 38.9344 -112.8483 86° East 363 418 41,000  Level Salt Lake Center
01:29PM 38.9403 -112.7197 87° East 362 417 41,000  Level Salt Lake Center
01:30PM 38.9469 -112.5656 87° East 361 415 41,000  Level Salt Lake Center
01:31PM 38.9539 -112.4372 86° East 360 414 41,000  Level Salt Lake Center
01:32PM 38.9594 -112.3089 87° East 361 415 41,000  Level Salt Lake Center
01:33PM 38.9650 -112.1803 87° East 360 414 41,000  Level Salt Lake Center
01:35PM 38.9703 -112.0525 87° East 359 413 41,000  Level Salt Lake Center
01:36PM 38.9758 -111.9233 87° East 360 414 41,000  Level Salt Lake Center
01:37PM 38.9825 -111.7658 87° East 366 421 41,000  Level Salt Lake Center
01:38PM 38.9869 -111.6347 87° East 367 422 41,000  Level Salt Lake Center
01:39PM 38.9919 -111.5036 87° East 368 423 41,000  Level Salt Lake Center
01:40PM 38.9967 -111.3722 87° East 368 423 41,000  Level Salt Lake Center
01:41PM 39.0025 -111.2367 87° East 369 425 41,000  Level Salt Lake Center
01:42PM 39.0047 -111.0878 89° East 372 428 41,000  Level Salt Lake Center
01:43PM 39.0083 -110.9614 88° East 370 426 41,000  Level Salt Lake Center
01:44PM 39.0139 -110.8144 87° East 371 427 41,000  Level Salt Lake Center
01:45PM 39.0203 -110.6886 86° East 370 426 41,000  Level Salt Lake Center
01:46PM 39.0317 -110.5422 84° East 369 425 41,000  Level Salt Lake Center
01:47PM 39.0392 -110.4164 86° East 370 426 41,000  Level Salt Lake Center
01:48PM 39.0483 -110.2892 85° East 372 428 41,000  Level Salt Lake Center
01:49PM 39.0575 -110.1411 85° East 372 428 41,000  Level Salt Lake Center
01:50PM 39.0658 -110.0136 85° East 374 430 41,000  Level Salt Lake Center
01:51PM 39.0733 -109.8647 86° East 373 429 41,000  Level Salt Lake Center
01:52PM 39.0814 -109.7369 85° East 375 432 41,000  Level Salt Lake Center
01:53PM 39.0900 -109.5906 86° East 369 425 41,000  Level Salt Lake Center
01:54PM 39.0975 -109.4414 86° East 368 423 41,000  Level Denver Center
01:56PM 39.1118 -109.2610 84° East  Level FlightAware Approximate
01:56PM 39.1119 -109.1947 84° East 365 420 41,000  Level Salt Lake Center
01:57PM 39.1200 -109.0256 86° East 366 421 41,000  Level Denver Center
01:58PM 39.1269 -108.9008 86° East 366 421 41,000  Level Denver Center
01:59PM 39.1353 -108.7567 86° East 363 418 41,000  Level Denver Center
02:01PM 39.1478 -108.5094 86° East 364 419 41,000  Level Salt Lake Center
02:02PM 39.1539 -108.3883 86° East 357 411 41,000  Level Salt Lake Center
02:04PM 39.1633 -108.2219 86° East 360 414 41,000  Level Denver Center
02:05PM 39.1683 -108.0986 87° East 361 415 41,000  Level Denver Center
02:06PM 39.1750 -107.9531 87° East 365 420 41,000  Level Denver Center
02:07PM 39.1794 -107.8289 87° East 363 418 41,000  Level Denver Center
02:08PM 39.1858 -107.6836 87° East 365 420 41,000  Level Denver Center
02:09PM 39.1917 -107.5592 86° East 364 419 41,000  Level Denver Center
02:10PM 39.1972 -107.4136 87° East 365 420 41,000  Level Denver Center
02:11PM 39.2028 -107.2883 87° East 366 421 41,000  Level Denver Center
02:12PM 39.2083 -107.1433 87° East 364 419 41,000  Level Denver Center
02:13PM 39.2117 -107.0189 88° East 365 420 41,000  Level Denver Center
02:14PM 39.2181 -106.8747 87° East 362 417 41,000  Level Denver Center
02:15PM 39.2214 -106.7522 88° East 358 412 41,000  Level Denver Center
02:16PM 39.2267 -106.6111 87° East 355 409 41,000  Level Denver Center
02:17PM 39.2308 -106.4908 87° East 352 405 41,000  Level Denver Center
02:18PM 39.2350 -106.3706 87° East 352 405 41,000  Level Denver Center
02:19PM 39.2394 -106.2308 88° East 349 402 41,000  Level Denver Center
02:20PM 39.2431 -106.1078 88° East 349 402 41,000  Level Denver Center
02:21PM 39.2467 -105.9856 88° East 342 394 41,000  Level Denver Center
02:22PM 39.2497 -105.8625 88° East 343 395 41,000  Level Denver Center
02:23PM 39.2531 -105.7403 88° East 342 394 41,000  Level Denver Center
02:24PM 39.2575 -105.5919 88° East 345 397 41,000  Level Denver Center
02:25PM 39.2594 -105.4700 89° East 344 396 41,000  Level Denver Center
02:26PM 39.2628 -105.3361 88° East 347 399 41,000  Level Denver Center
02:27PM 39.2647 -105.2103 89° East 352 405 41,000  Level Denver Center
02:28PM 39.2669 -105.0769 89° East 347 399 41,000  Level Denver Center
02:29PM 39.2700 -104.9494 88° East 355 409 41,000  Level Denver Center
02:31PM 39.2708 -104.8106 90° East 361 415 41,000  Level Denver Center
02:32PM 39.2733 -104.6833 89° East 358 412 41,000  Level Denver Center
02:33PM 39.2753 -104.5447 89° East 360 414 41,000  Level Denver Center
02:34PM 39.2775 -104.4164 89° East 358 412 41,000  Level Denver Center
02:35PM 39.2800 -104.2739 89° East 362 417 41,000  Level Denver Center
02:38PM 39.2856 -103.9089 89° East 359 413 41,000  Level Kansas City Center
02:39PM 39.2861 -103.7861 90° East 359 413 41,000  Level Kansas City Center
02:40PM 39.2867 -103.6197 90° East 358 412 41,000  Level Denver Center
02:41PM 39.2878 -103.4958 89° East 358 412 41,000  Level Denver Center
02:42PM 39.2894 -103.3508 89° East 362 417 41,000  Level Denver Center
02:43PM 39.2897 -103.2253 90° East 365 420 41,000  Level Denver Center
02:44PM 39.2906 -103.0808 90° East 363 418 41,000  Level Denver Center
02:45PM 39.2900 -102.9561 90° East 363 418 41,000  Level Denver Center
02:46PM 39.2903 -102.8100 90° East 365 420 41,000  Level Denver Center
02:47PM 39.2903 -102.6889 90° East 365 420 41,000  Level Denver Center
02:48PM 39.2908 -102.5442 90° East 362 417 41,000  Level Denver Center
02:49PM 39.2900 -102.4194 90° East 363 418 41,000  Level Denver Center
02:50PM 39.2889 -102.2747 91° East 362 417 41,000  Level Denver Center
02:52PM 39.2883 -102.0486 90° East 360 414 41,000  Level Kansas City Center
02:53PM 39.2875 -101.9261 90° East 358 412 41,000  Level Kansas City Center
02:54PM 39.2869 -101.7625 90° East 358 412 41,000  Level Denver Center
02:55PM 39.2853 -101.6136 91° East 357 411 41,000  Level Denver Center
02:57PM 39.2831 -101.3922 91° East 361 415 41,000  Level Kansas City Center
02:58PM 39.2814 -101.2706 91° East 358 412 41,000  Level Kansas City Center
02:59PM 39.2794 -101.1275 91° East 358 412 41,000  Level Kansas City Center
03:00PM 39.2778 -101.0042 91° East 358 412 41,000  Level Kansas City Center
03:01PM 39.2750 -100.8614 91° East 357 411 41,000  Level Kansas City Center
03:02PM 39.2733 -100.7378 91° East 360 414 41,000  Level Kansas City Center
03:03PM 39.2708 -100.5944 91° East 358 412 41,000  Level Kansas City Center
03:05PM 39.2675 -100.4272 91° East 358 412 41,000  Level Denver Center
03:06PM 39.2650 -100.3044 91° East 357 411 41,000  Level Denver Center
03:07PM 39.2619 -100.1614 92° East 359 413 41,000  Level Denver Center
03:08PM 39.2592 -100.0403 92° East 354 407 41,000  Level Denver Center
03:09PM 39.2558 -99.8978 92° East 357 411 41,000  Level Denver Center
03:10PM 39.2525 -99.7747 92° East 359 413 41,000  Level Denver Center
03:11PM 39.2492 -99.6322 92° East 357 411 41,000  Level Denver Center
03:12PM 39.2450 -99.5094 92° East 359 413 41,000  Level Denver Center
03:13PM 39.2425 -99.3675 91° East 357 411 41,000  Level Denver Center
03:14PM 39.2381 -99.2467 93° East 355 409 41,000  Level Denver Center
03:15PM 39.2339 -99.1067 92° East 352 405 41,000  Level Denver Center
03:16PM 39.2300 -98.9844 92° East 354 407 41,000  Level Denver Center
03:17PM 39.2264 -98.8911 93° East 346 398 41,000  Level Kansas City Center
03:18PM 39.2233 -98.7747 92° East 343 395 41,000  Level Kansas City Center
03:19PM 39.2183 -98.6375 93° East 342 394 41,000  Level Kansas City Center
03:20PM 39.2147 -98.5242 92° East 342 394 41,000  Level Kansas City Center
03:21PM 39.2103 -98.4022 93° East 339 390 41,000  Level Kansas City Center
03:22PM 39.2050 -98.2817 93° East 337 388 41,000  Level Kansas City Center
03:23PM 39.1997 -98.1364 93° East 338 389 41,000  Level Kansas City Center
03:24PM 39.1944 -98.0128 93° East 342 394 41,000  Level Kansas City Center
03:25PM 39.1894 -97.8864 93° East 347 399 41,000  Level Kansas City Center
03:26PM 39.1850 -97.7547 92° East 354 407 41,000  Level Kansas City Center
03:27PM 39.1792 -97.6325 93° East 357 411 41,000  Level Kansas City Center
03:28PM 39.1731 -97.4903 93° East 357 411 41,000  Level Kansas City Center
03:29PM 39.1675 -97.3681 93° East 356 410 41,000  Level Kansas City Center
03:30PM 39.1606 -97.2250 94° East 358 412 41,000  Level Kansas City Center
03:31PM 39.1539 -97.1033 94° East 357 411 41,000  Level Kansas City Center
03:32PM 39.1478 -96.9606 93° East 358 412 41,000  Level Kansas City Center
03:33PM 39.1419 -96.8389 93° East 357 411 41,000  Level Kansas City Center
03:34PM 39.1344 -96.6992 94° East 353 406 41,000  Level Kansas City Center
03:35PM 39.1283 -96.5797 94° East 350 403 41,000  Level Kansas City Center
03:36PM 39.1203 -96.4400 94° East 351 404 41,000  Level Kansas City Center
03:37PM 39.1133 -96.3203 94° East 350 403 41,000  Level Kansas City Center
03:38PM 39.1064 -96.2011 94° East 349 402 41,000  Level Kansas City Center
03:39PM 39.0986 -96.0631 94° East 347 399 41,000  Level Kansas City Center
03:40PM 39.0919 -95.9436 94° East 350 403 41,000  Level Kansas City Center
03:41PM 39.0919 -95.9308 94° East  Level FlightAware Approximate
03:41PM 39.0839 -95.8050 94° East 349 402 41,000  Level Kansas City Center
03:43PM 39.0772 -95.6844 94° East 351 404 41,000  Level Kansas City Center
03:44PM 39.0686 -95.5436 94° East 351 404 41,000  Level Kansas City Center
03:45PM 39.0600 -95.4083 95° East 353 406 41,000  Level Kansas City Center
03:46PM 39.0522 -95.2825 95° East 355 409 41,000  Level Kansas City Center
03:48PM 39.0350 -95.0283 95° East 354 407 41,000  Level Kansas City Center
03:49PM 39.0269 -94.9097 95° East 351 404 41,000  Level Kansas City Center
03:50PM 39.0172 -94.7706 95° East 352 405 41,000  Level Kansas City Center
03:51PM 39.0092 -94.6511 95° East 351 404 41,000  Level Kansas City Center
03:52PM 39.0000 -94.5114 95° East 352 405 41,000  Level Kansas City Center
03:53PM 38.9911 -94.3936 96° East 347 399 41,000  Level Kansas City Center
03:54PM 38.9808 -94.2536 95° East 351 404 41,000  Level Kansas City Center
03:55PM 38.9719 -94.1339 95° East 351 404 41,000  Level Kansas City Center
03:56PM 38.9614 -93.9939 95° East 353 406 41,000  Level Kansas City Center
03:57PM 38.9519 -93.8742 96° East 353 406 41,000  Level Kansas City Center
03:59PM 38.9376 -93.6850 97° East  Level FlightAware Approximate
03:59PM 38.9344 -93.6164 97° East 353 406 41,000  Level Kansas City Center
04:00PM 38.9214 -93.4897 98° East 356 410 39,700 -1,500 Descending Kansas City Center
04:01PM 38.9131 -93.3525 94° East 369 425 38,000 -1,320 Descending Kansas City Center
04:02PM 38.9017 -93.2192 96° East 375 432 37,000 -1,440 Descending Kansas City Center
04:03PM 38.8892 -93.0667 96° East 362 417 35,100 -1,740 Descending Kansas City Center
04:04PM 38.8781 -92.9458 97° East 352 405 33,500 -1,560 Descending Kansas City Center
04:05PM 38.8681 -92.8261 96° East 344 396 31,900 -1,560 Descending Kansas City Center
04:06PM 38.8589 -92.7083 96° East 336 387 30,300 -1,560 Descending Kansas City Center
04:07PM 38.8492 -92.5964 96° East 325 374 28,700 -1,560 Descending Kansas City Center
04:08PM 38.8389 -92.4867 97° East 315 362 27,100 -1,620 Descending Kansas City Center
04:09PM 38.8289 -92.3689 96° East 321 369 25,400 -1,740 Descending Kansas City Center
04:10PM 38.8183 -92.2514 97° East 329 379 23,600 -2,100 Descending Kansas City Center
04:11PM 38.8050 -92.1097 97° East 331 381 21,100 -2,220 Descending Kansas City Center
04:12PM 38.7942 -91.9933 97° East 329 379 19,100 -1,920 Descending Kansas City Center
04:13PM 38.7833 -91.8803 97° East 322 371 17,200 -1,980 Descending Kansas City Center
04:15PM 38.7725 -91.7700 97° East 314 361 15,100 -2,040 Descending Kansas City Center
04:16PM 38.7642 -91.6775 97° East 301 346 13,000 -2,280 Descending Kansas City Center
04:17PM 38.7525 -91.5589 97° East 284 327 10,400 -2,340 Descending Kansas City Center
04:18PM 38.7439 -91.4608 96° East 280 322 8,200 -1,980 Descending Kansas City Center
04:19PM 38.7336 -91.3692 98° East 266 306 6,400 -1,560 Descending Kansas City Center
04:20PM 38.7250 -91.2767 97° East 263 303 5,000 -720 Descending Kansas City Center
04:21PM 38.7156 -91.1833 97° East 264 304 5,000 -300 Level Kansas City Center
04:22PM 38.7072 -91.0933 97° East 258 297 4,400 -540 Descending Kansas City Center
04:23PM 38.6978 -90.9992 97° East 220 253 4,000 -540 Descending Kansas City Center
04:24PM 38.6911 -90.9278 97° East 203 234 3,400 -600 Descending Kansas City Center
04:25PM 38.6717 -90.8644 111° Southeast 196 226 2,800 -420 Descending Kansas City Center
04:26PM 38.6494 -90.8083 117° Southeast 186 214 2,600 -480 Descending Kansas City Center
04:27PM 38.6400 -90.7575 103° East 173 199 1,900 -720 Descending Kansas City Center
04:28PM 38.6492 -90.7111 76° East 130 150 1,200 -660 Descending Kansas City Center
04:29PM 38.6556 -90.6719 78° East 118 136 600 -420 Descending Kansas City Center
04:30PM 38.6617 -90.6353 78° East 116 133 400 -240 Descending Kansas City Center